Bulk Japan — D5GP4 — position and weather

sailwx.info

Track history (hours):
 
Tides and Currents Weather Stations Pressure Air Temp Water Temp Dewpoint Dewpoint Depression Visibility Wind Speed Wind Dir Waves Ship Positions

Bulk Japan

Last reported at 2017-Oct-17 17:57 UTC. Time now 2017-Oct-17 22:34 UTC.
Position N 36°46' E 020°24'.

Length 227 m; draft 7.8 m.

Type: Cargo ship. MMSI: 636016529.

Date/timePositionNaut miles runAvg speedWind from/ knotsBaromVisibWave heightAir tempDewpointWater temp
2017-Oct-17 17:57N 36°46' E 020°24'612.6
2017-Oct-17 17:30N 36°48' E 020°18'612.5
2017-Oct-17 17:00N 36°50' E 020°10'612.3
2017-Oct-17 16:30N 36°52' E 020°03'612.4
2017-Oct-17 16:00N 36°55' E 019°56'612.3
2017-Oct-17 15:30N 36°57' E 019°49'612.4
2017-Oct-17 15:00N 36°59' E 019°42'612.2
2017-Oct-17 14:30N 37°02' E 019°35'712.5
2017-Oct-17 13:59N 37°04' E 019°27'612.7
2017-Oct-17 13:30N 37°06' E 019°20'612.8
2017-Oct-17 13:00N 37°09' E 019°12'612.8
2017-Oct-17 12:30N 37°11' E 019°05'612.9
2017-Oct-17 12:00N 37°13' E 018°57'612.8
2017-Oct-17 11:30N 37°15' E 018°50'712.7
2017-Oct-17 10:58N 37°18' E 018°42'612.7
2017-Oct-17 10:30N 37°20' E 018°35'612.6
2017-Oct-17 10:00N 37°22' E 018°28'612.5
2017-Oct-17 09:30N 37°25' E 018°20'2112.3
2017-Oct-17 07:46N 37°37' E 017°59'813.0
2017-Oct-17 07:07N 37°45' E 017°53'212.8
2017-Oct-17 07:00N 37°46' E 017°52'3212.4
2017-Oct-17 04:24N 38°14' E 017°31'512.4
2017-Oct-17 04:00N 38°18' E 017°28'612.0
2017-Oct-17 03:30N 38°23' E 017°23'611.9
2017-Oct-17 02:57N 38°28' E 017°28'1312.2
2017-Oct-17 01:51N 38°38' E 017°39'412.2
2017-Oct-17 01:30N 38°42' E 017°42'612.2
2017-Oct-17 01:00N 38°47' E 017°47'612.3
2017-Oct-17 00:30N 38°51' E 017°52'612.5
2017-Oct-17 00:00N 38°56' E 017°57'612.4
2017-Oct-16 23:29N 39°01' E 018°02'612.1
2017-Oct-16 22:57N 39°07' E 018°07'512.0
2017-Oct-16 22:30N 39°11' E 018°11'911.9
2017-Oct-16 21:46N 39°18' E 018°18'311.8
2017-Oct-16 21:30N 39°20' E 018°21'611.8
2017-Oct-16 21:01N 39°25' E 018°25'612.2
2017-Oct-16 20:30N 39°30' E 018°30'612.5
2017-Oct-16 20:00N 39°35' E 018°35'612.5
2017-Oct-16 19:30N 39°39' E 018°40'612.2
2017-Oct-16 19:00N 39°45' E 018°43'612.6
2017-Oct-16 18:30N 39°52' E 018°43'613.0
2017-Oct-16 18:01N 39°58' E 018°42'612.7
2017-Oct-16 17:30N 40°04' E 018°43'613.0
2017-Oct-16 17:00N 40°11' E 018°44'612.5
2017-Oct-16 16:30N 40°17' E 018°44'912.1
2017-Oct-16 15:45N 40°25' E 018°38'412.8
2017-Oct-16 15:24N 40°29' E 018°34'5513.0
2017-Oct-16 11:11N 41°13' E 017°52'12311.5
2017-Oct-16 00:28N 43°01' E 016°33'  
2017-Oct-08 10:18N 36°27' E 014°45'411.8
2017-Oct-08 09:57N 36°28' E 014°41'611.7
2017-Oct-08 09:28N 36°30' E 014°34'611.7
2017-Oct-08 08:59N 36°31' E 014°27'611.7
2017-Oct-08 08:29N 36°32' E 014°20'611.6
2017-Oct-08 08:00N 36°34' E 014°13'611.7
2017-Oct-08 07:30N 36°36' E 014°06'611.6
2017-Oct-08 07:00N 36°37' E 013°59'611.4
2017-Oct-08 06:29N 36°39' E 013°52'1211.3
2017-Oct-08 05:28N 36°42' E 013°38'  
Track history (hours):
 
Tides and Currents Weather Stations Pressure Air Temp Water Temp Dewpoint Dewpoint Depression Visibility Wind Speed Wind Dir Waves Ship Positions

Bulk Japan

Last reported at 2017-Oct-17 17:57 UTC. Time now 2017-Oct-17 22:34 UTC.
Position N 36°46' E 020°24'.

Length 227 m; draft 7.8 m.

Type: Cargo ship. MMSI: 636016529.

Date/timePositionNaut miles runAvg speedWind from/ knotsBaromVisibWave heightAir tempDewpointWater temp
2017-Oct-17 17:57N 36°46' E 020°24'612.6
2017-Oct-17 17:30N 36°48' E 020°18'612.5
2017-Oct-17 17:00N 36°50' E 020°10'612.3
2017-Oct-17 16:30N 36°52' E 020°03'612.4
2017-Oct-17 16:00N 36°55' E 019°56'612.3
2017-Oct-17 15:30N 36°57' E 019°49'612.4
2017-Oct-17 15:00N 36°59' E 019°42'612.2
2017-Oct-17 14:30N 37°02' E 019°35'712.5
2017-Oct-17 13:59N 37°04' E 019°27'612.7
2017-Oct-17 13:30N 37°06' E 019°20'612.8
2017-Oct-17 13:00N 37°09' E 019°12'612.8
2017-Oct-17 12:30N 37°11' E 019°05'612.9
2017-Oct-17 12:00N 37°13' E 018°57'612.8
2017-Oct-17 11:30N 37°15' E 018°50'712.7
2017-Oct-17 10:58N 37°18' E 018°42'612.7
2017-Oct-17 10:30N 37°20' E 018°35'612.6
2017-Oct-17 10:00N 37°22' E 018°28'612.5
2017-Oct-17 09:30N 37°25' E 018°20'2112.3
2017-Oct-17 07:46N 37°37' E 017°59'813.0
2017-Oct-17 07:07N 37°45' E 017°53'212.8
2017-Oct-17 07:00N 37°46' E 017°52'3212.4
2017-Oct-17 04:24N 38°14' E 017°31'512.4
2017-Oct-17 04:00N 38°18' E 017°28'612.0
2017-Oct-17 03:30N 38°23' E 017°23'611.9
2017-Oct-17 02:57N 38°28' E 017°28'1312.2
2017-Oct-17 01:51N 38°38' E 017°39'412.2
2017-Oct-17 01:30N 38°42' E 017°42'612.2
2017-Oct-17 01:00N 38°47' E 017°47'612.3
2017-Oct-17 00:30N 38°51' E 017°52'612.5
2017-Oct-17 00:00N 38°56' E 017°57'612.4
2017-Oct-16 23:29N 39°01' E 018°02'612.1
2017-Oct-16 22:57N 39°07' E 018°07'512.0
2017-Oct-16 22:30N 39°11' E 018°11'911.9
2017-Oct-16 21:46N 39°18' E 018°18'311.8
2017-Oct-16 21:30N 39°20' E 018°21'611.8
2017-Oct-16 21:01N 39°25' E 018°25'612.2
2017-Oct-16 20:30N 39°30' E 018°30'612.5
2017-Oct-16 20:00N 39°35' E 018°35'612.5
2017-Oct-16 19:30N 39°39' E 018°40'612.2
2017-Oct-16 19:00N 39°45' E 018°43'612.6
2017-Oct-16 18:30N 39°52' E 018°43'613.0
2017-Oct-16 18:01N 39°58' E 018°42'612.7
2017-Oct-16 17:30N 40°04' E 018°43'613.0
2017-Oct-16 17:00N 40°11' E 018°44'612.5
2017-Oct-16 16:30N 40°17' E 018°44'912.1
2017-Oct-16 15:45N 40°25' E 018°38'412.8
2017-Oct-16 15:24N 40°29' E 018°34'5513.0
2017-Oct-16 11:11N 41°13' E 017°52'12311.5
2017-Oct-16 00:28N 43°01' E 016°33'  
2017-Oct-08 10:18N 36°27' E 014°45'411.8
2017-Oct-08 09:57N 36°28' E 014°41'611.7
2017-Oct-08 09:28N 36°30' E 014°34'611.7
2017-Oct-08 08:59N 36°31' E 014°27'611.7
2017-Oct-08 08:29N 36°32' E 014°20'611.6
2017-Oct-08 08:00N 36°34' E 014°13'611.7
2017-Oct-08 07:30N 36°36' E 014°06'611.6
2017-Oct-08 07:00N 36°37' E 013°59'611.4
2017-Oct-08 06:29N 36°39' E 013°52'1211.3
2017-Oct-08 05:28N 36°42' E 013°38'  

Dump ship's entire track history